createdAt,value
2019-02-23T00:01:48.191Z,81.13
2019-02-23T00:04:17.772Z,80.80
2019-02-23T00:06:47.480Z,80.70
2019-02-23T00:09:16.941Z,80.83
2019-02-23T00:11:46.721Z,80.55
2019-02-23T00:14:16.591Z,80.01
2019-02-23T00:16:46.063Z,80.87
2019-02-23T00:19:24.377Z,81.15
2019-02-23T00:21:46.909Z,80.06
2019-02-23T00:24:16.646Z,80.77
2019-02-23T00:26:46.196Z,80.26
2019-02-23T00:29:15.980Z,80.12
2019-02-23T00:31:45.455Z,80.08
2019-02-23T00:34:15.203Z,80.09
2019-02-23T00:36:44.936Z,80.15
2019-02-23T00:39:14.429Z,79.89
2019-02-23T00:41:44.202Z,79.81
2019-02-23T00:44:13.703Z,80.08
2019-02-23T00:46:43.407Z,80.45
2019-02-23T00:49:13.129Z,80.01
2019-02-23T00:51:42.609Z,80.80
2019-02-23T00:54:11.989Z,81.15
2019-02-23T00:56:41.388Z,81.52
2019-02-23T00:59:11.253Z,81.66
2019-02-23T01:01:40.995Z,81.25
2019-02-23T01:04:10.534Z,80.94
2019-02-23T01:06:39.988Z,81.01
2019-02-23T01:09:09.770Z,81.27
2019-02-23T01:11:39.354Z,80.56
2019-02-23T01:14:09.095Z,81.26
2019-02-23T01:16:38.563Z,81.21
2019-02-23T01:19:08.289Z,81.56
2019-02-23T01:21:38.078Z,81.14
2019-02-23T01:24:07.602Z,81.02
2019-02-23T01:26:37.125Z,80.26
2019-02-23T01:29:06.823Z,80.97
2019-02-23T01:31:36.414Z,81.24
2019-02-23T01:34:06.245Z,81.59
2019-02-23T01:36:35.948Z,81.40
2019-02-23T01:39:07.351Z,81.61
2019-02-23T01:41:36.762Z,82.15
2019-02-23T01:44:06.338Z,82.67
2019-02-23T01:46:35.924Z,82.49
2019-02-23T01:49:05.736Z,82.50
2019-02-23T01:51:35.476Z,82.75
2019-02-23T01:54:04.864Z,83.01
2019-02-23T01:56:34.250Z,82.86
2019-02-23T01:59:04.119Z,82.39
2019-02-23T02:01:33.782Z,82.62
2019-02-23T02:04:03.349Z,82.09
2019-02-23T02:06:33.686Z,81.99
2019-02-23T02:09:03.891Z,82.07
2019-02-23T02:11:33.375Z,81.51
2019-02-23T02:14:03.231Z,81.98
2019-02-23T02:16:32.736Z,81.71
2019-02-23T02:19:02.590Z,82.05
2019-02-23T02:21:32.362Z,82.05
2019-02-23T02:24:02.017Z,81.87
2019-02-23T02:26:31.703Z,81.24
2019-02-23T02:29:01.273Z,82.10
2019-02-23T02:31:30.849Z,81.99
2019-02-23T02:34:12.005Z,82.25
2019-02-23T02:36:41.496Z,82.04
2019-02-23T02:39:12.455Z,82.11
2019-02-23T02:41:42.043Z,82.71
2019-02-23T02:44:11.542Z,82.77
2019-02-23T02:46:41.220Z,83.27
2019-02-23T02:49:11.134Z,83.27
2019-02-23T02:51:40.539Z,83.58
2019-02-23T02:54:10.031Z,83.56
2019-02-23T02:56:39.511Z,84.72
2019-02-23T02:59:09.054Z,85.90
2019-02-23T03:01:38.626Z,85.90
2019-02-23T03:04:08.395Z,86.46
2019-02-23T03:06:37.867Z,86.60
2019-02-23T03:09:09.246Z,86.13
2019-02-23T03:11:38.823Z,87.22
2019-02-23T03:14:08.312Z,87.55
2019-02-23T03:16:38.133Z,87.77
2019-02-23T03:19:07.942Z,88.22
2019-02-23T03:21:37.626Z,88.60
2019-02-23T03:24:07.093Z,88.51
2019-02-23T03:26:36.783Z,89.20
2019-02-23T03:29:06.362Z,89.47
2019-02-23T03:31:36.026Z,89.40
2019-02-23T03:34:05.753Z,89.18
2019-02-23T03:36:35.237Z,88.84
2019-02-23T03:39:05.594Z,89.31
2019-02-23T03:41:35.306Z,89.31
2019-02-23T03:44:05.155Z,89.49
2019-02-23T03:46:34.577Z,89.46
2019-02-23T03:49:04.375Z,89.28
2019-02-23T03:51:34.063Z,90.13
2019-02-23T03:54:03.826Z,90.49
2019-02-23T03:56:34.499Z,90.57
2019-02-23T03:59:04.337Z,90.59
2019-02-23T04:01:34.240Z,89.97
2019-02-23T04:04:03.830Z,90.88
2019-02-23T04:06:33.460Z,91.03
2019-02-23T04:09:03.189Z,90.94
2019-02-23T04:11:32.656Z,91.13
2019-02-23T04:14:02.188Z,91.29
2019-02-23T04:16:31.875Z,91.28
2019-02-23T04:19:01.736Z,91.41
2019-02-23T04:21:31.597Z,91.44
2019-02-23T04:24:00.988Z,91.22
2019-02-23T04:26:30.816Z,91.29
2019-02-23T04:29:00.196Z,91.58
2019-02-23T04:31:29.786Z,91.80
2019-02-23T04:33:59.556Z,91.68
2019-02-23T04:36:29.381Z,91.41
2019-02-23T04:38:58.839Z,91.57
2019-02-23T04:41:28.229Z,91.63
2019-02-23T04:43:58.022Z,91.98
2019-02-23T04:46:27.779Z,91.97
2019-02-23T04:48:57.484Z,92.12
2019-02-23T04:51:26.883Z,91.92
2019-02-23T04:53:56.645Z,91.86
2019-02-23T04:56:26.126Z,91.88
2019-02-23T04:58:55.805Z,92.03
2019-02-23T05:01:25.199Z,92.13
2019-02-23T05:03:55.081Z,92.20
2019-02-23T05:06:24.492Z,92.22
2019-02-23T05:08:54.224Z,92.31
2019-02-23T05:11:24.048Z,92.07
2019-02-23T05:13:53.746Z,92.00
2019-02-23T05:16:23.147Z,92.22
2019-02-23T05:18:52.901Z,92.28
2019-02-23T05:21:26.181Z,92.27
2019-02-23T05:23:53.757Z,92.45
2019-02-23T05:26:23.428Z,92.54
2019-02-23T05:28:53.164Z,92.52
2019-02-23T05:31:22.997Z,92.44
2019-02-23T05:33:52.395Z,92.82
2019-02-23T05:36:21.793Z,92.82
2019-02-23T05:38:51.575Z,92.56
2019-02-23T05:41:21.272Z,92.31
2019-02-23T05:43:50.879Z,92.22
2019-02-23T05:46:20.362Z,91.95
2019-02-23T05:48:49.986Z,91.96
2019-02-23T05:51:19.576Z,91.95
2019-02-23T05:53:49.111Z,92.05
2019-02-23T05:56:18.805Z,92.01
2019-02-23T05:58:48.510Z,92.30
2019-02-23T06:01:17.932Z,92.02
2019-02-23T06:03:47.680Z,92.11
2019-02-23T06:06:17.532Z,91.72
2019-02-23T06:08:47.129Z,91.72
2019-02-23T06:11:17.149Z,91.95
2019-02-23T06:13:46.881Z,91.56
2019-02-23T06:16:16.584Z,91.79
2019-02-23T06:18:46.254Z,91.62
2019-02-23T06:21:15.951Z,91.20
2019-02-23T06:23:45.703Z,91.20
2019-02-23T06:26:15.095Z,89.86
2019-02-23T06:28:44.883Z,88.90
2019-02-23T06:31:14.364Z,88.90
2019-02-23T06:33:44.187Z,88.69
2019-02-23T06:36:13.850Z,89.54
2019-02-23T06:38:43.769Z,88.76
2019-02-23T06:41:13.479Z,87.46
2019-02-23T06:43:43.065Z,85.74
2019-02-23T06:46:12.544Z,87.63
2019-02-23T06:48:42.277Z,87.63
2019-02-23T06:51:11.958Z,86.04
2019-02-23T06:53:41.695Z,87.57
2019-02-23T06:56:11.094Z,84.72
2019-02-23T06:58:40.618Z,84.44
2019-02-23T07:01:10.426Z,83.02
2019-02-23T07:03:40.025Z,83.02
2019-02-23T07:06:09.828Z,85.86
2019-02-23T07:08:39.555Z,83.83
2019-02-23T07:11:09.057Z,83.83
2019-02-23T07:13:38.827Z,83.78
2019-02-23T07:16:08.585Z,83.89
2019-02-23T07:18:38.168Z,83.20
2019-02-23T07:21:07.686Z,85.14
2019-02-23T07:23:37.178Z,85.37
2019-02-23T07:26:06.676Z,83.62
2019-02-23T07:28:36.080Z,84.95
2019-02-23T07:31:05.695Z,84.95
2019-02-23T07:33:35.563Z,83.60
2019-02-23T07:36:05.317Z,81.26
2019-02-23T07:38:35.623Z,82.42
2019-02-23T07:41:05.455Z,83.96
2019-02-23T07:43:34.932Z,85.82
2019-02-23T07:46:04.575Z,85.82
2019-02-23T07:48:34.119Z,86.35
2019-02-23T07:51:03.888Z,85.44
2019-02-23T07:53:33.503Z,87.37
2019-02-23T07:56:03.102Z,87.37
2019-02-23T07:58:32.870Z,87.21
2019-02-23T08:01:02.462Z,87.03
2019-02-23T08:03:32.001Z,86.40
2019-02-23T08:06:01.409Z,86.71
2019-02-23T08:08:30.897Z,86.53
2019-02-23T08:11:00.379Z,86.75
2019-02-23T08:13:29.906Z,86.50
2019-02-23T08:16:01.790Z,85.59
2019-02-23T08:18:31.547Z,86.43
2019-02-23T08:21:01.305Z,85.99
2019-02-23T08:23:30.806Z,86.22
2019-02-23T08:26:00.392Z,85.09
2019-02-23T08:28:30.071Z,85.93
2019-02-23T08:30:59.890Z,85.92
2019-02-23T08:33:29.269Z,84.75
2019-02-23T08:36:00.248Z,84.75
2019-02-23T08:38:30.110Z,83.90
2019-02-23T08:40:59.604Z,83.66
2019-02-23T08:43:29.005Z,83.69
2019-02-23T08:45:58.676Z,82.44
2019-02-23T08:48:28.446Z,82.44
2019-02-23T08:50:57.943Z,82.43
2019-02-23T08:53:27.965Z,77.28
2019-02-23T08:55:57.572Z,74.47
2019-02-23T08:58:27.437Z,74.57
2019-02-23T09:00:57.161Z,79.23
2019-02-23T09:03:26.796Z,71.87
2019-02-23T09:05:56.658Z,75.90
2019-02-23T09:08:26.596Z,77.58
2019-02-23T09:10:58.118Z,75.13
2019-02-23T09:13:27.924Z,76.72
2019-02-23T09:15:57.414Z,68.65
2019-02-23T09:18:27.061Z,74.21
2019-02-23T09:20:56.748Z,64.93
2019-02-23T09:23:26.228Z,74.28
2019-02-23T09:25:57.825Z,73.82
2019-02-23T09:28:27.235Z,71.82
2019-02-23T09:30:56.980Z,64.92
2019-02-23T09:33:26.525Z,70.13
2019-02-23T09:35:57.403Z,71.29
2019-02-23T09:38:27.200Z,69.87
2019-02-23T09:40:56.675Z,68.23
2019-02-23T09:43:26.433Z,66.36
2019-02-23T09:45:56.093Z,60.12
2019-02-23T09:48:25.964Z,60.97
2019-02-23T09:50:55.653Z,63.31
2019-02-23T09:53:25.047Z,64.30
2019-02-23T09:55:54.453Z,61.13
2019-02-23T09:58:23.965Z,62.05
2019-02-23T10:00:53.666Z,62.14
2019-02-23T10:03:23.294Z,63.14
2019-02-23T10:05:53.285Z,64.90
2019-02-23T10:08:23.049Z,63.50
2019-02-23T10:10:52.815Z,62.77
2019-02-23T10:13:22.517Z,59.90
2019-02-23T10:15:51.927Z,61.53
2019-02-23T10:18:21.652Z,62.03
2019-02-23T10:20:51.490Z,63.24
2019-02-23T10:23:22.355Z,63.62
2019-02-23T10:25:52.185Z,56.14
2019-02-23T10:28:21.907Z,56.51
2019-02-23T10:30:51.307Z,59.97
2019-02-23T10:33:21.026Z,60.07
2019-02-23T10:35:50.722Z,61.37
2019-02-23T10:38:20.333Z,60.32
2019-02-23T10:40:49.980Z,62.78
2019-02-23T10:43:19.702Z,60.79
2019-02-23T10:45:49.631Z,58.17
2019-02-23T10:48:19.482Z,59.33
2019-02-23T10:50:49.501Z,56.33
2019-02-23T10:53:19.565Z,54.60
2019-02-23T10:55:49.392Z,59.45
2019-02-23T10:58:19.114Z,60.72
2019-02-23T11:00:48.878Z,60.32
2019-02-23T11:03:21.065Z,58.62
2019-02-23T11:05:50.748Z,54.49
2019-02-23T11:08:20.488Z,59.82
2019-02-23T11:10:51.038Z,58.06
2019-02-23T11:13:23.428Z,59.93
2019-02-23T11:15:53.229Z,54.26
2019-02-23T11:18:22.950Z,53.29
2019-02-23T11:20:52.676Z,54.69
2019-02-23T11:23:22.228Z,58.19
2019-02-23T11:25:51.710Z,58.26
2019-02-23T11:28:21.350Z,58.66
2019-02-23T11:30:50.761Z,57.08
2019-02-23T11:33:20.359Z,55.69
2019-02-23T11:35:49.941Z,54.92
2019-02-23T11:38:19.845Z,57.88
2019-02-23T11:40:49.253Z,56.23
2019-02-23T11:43:18.994Z,50.63
2019-02-23T11:45:48.782Z,54.59
2019-02-23T11:48:18.492Z,57.55
2019-02-23T11:50:48.274Z,57.14
2019-02-23T11:53:17.741Z,55.25
2019-02-23T11:55:47.236Z,55.78
2019-02-23T11:58:17.071Z,56.63
2019-02-23T12:00:46.863Z,53.63
2019-02-23T12:03:16.258Z,51.21
2019-02-23T12:05:45.884Z,50.71
2019-02-23T12:08:15.715Z,54.53
2019-02-23T12:10:45.505Z,54.74
2019-02-23T12:13:15.237Z,50.60
2019-02-23T12:15:44.990Z,45.57
2019-02-23T12:18:14.742Z,47.31
2019-02-23T12:20:44.578Z,51.59
2019-02-23T12:23:14.260Z,51.63
2019-02-23T12:25:44.056Z,54.97
2019-02-23T12:28:14.108Z,57.10
2019-02-23T12:30:43.778Z,46.29
2019-02-23T12:33:13.282Z,58.01
2019-02-23T12:35:43.217Z,55.66
2019-02-23T12:38:12.878Z,56.88
2019-02-23T12:40:42.616Z,45.57
2019-02-23T12:43:12.262Z,46.50
2019-02-23T12:45:41.948Z,55.09
2019-02-23T12:48:11.847Z,47.23
2019-02-23T12:50:41.475Z,58.57
2019-02-23T12:53:11.532Z,55.71
2019-02-23T12:55:41.395Z,56.21
2019-02-23T12:58:11.082Z,54.47
2019-02-23T13:00:40.531Z,56.26
2019-02-23T13:03:10.319Z,53.33
2019-02-23T13:05:39.824Z,51.22
2019-02-23T13:08:09.690Z,58.17
2019-02-23T13:10:41.066Z,56.18
2019-02-23T13:13:48.553Z,56.70
2019-02-23T13:16:50.920Z,50.38
2019-02-23T13:19:58.396Z,46.33
2019-02-23T13:23:14.069Z,53.08
2019-02-23T13:26:03.496Z,56.28
2019-02-23T13:28:45.360Z,51.33
2019-02-23T13:31:52.645Z,48.79
2019-02-23T13:34:51.866Z,54.46
2019-02-23T13:38:06.941Z,59.95
2019-02-23T13:41:06.629Z,59.14
2019-02-23T13:44:09.196Z,56.25
2019-02-23T13:47:10.552Z,59.78
2019-02-23T13:50:27.544Z,56.57
2019-02-23T13:53:34.993Z,59.85
2019-02-23T13:56:31.524Z,60.26
2019-02-23T13:59:27.467Z,61.70
2019-02-23T14:02:59.094Z,61.95
2019-02-23T14:06:27.913Z,60.89
2019-02-23T14:09:33.366Z,58.58
2019-02-23T14:12:22.028Z,62.90
2019-02-23T14:15:33.315Z,62.99
2019-02-23T14:18:32.990Z,58.05
2019-02-23T14:21:30.313Z,53.66
2019-02-23T14:24:52.502Z,54.52
2019-02-23T14:28:11.307Z,54.20
2019-02-23T14:31:11.365Z,63.41
2019-02-23T14:34:14.631Z,59.20
2019-02-23T14:37:13.755Z,61.35
2019-02-23T14:40:10.265Z,63.35
2019-02-23T14:43:20.170Z,56.53
2019-02-23T14:46:29.279Z,62.32
2019-02-23T14:49:44.204Z,62.69
2019-02-23T14:53:00.761Z,61.09
2019-02-23T14:55:46.993Z,62.33
2019-02-23T14:58:53.215Z,55.78
2019-02-23T15:01:33.155Z,65.18
2019-02-23T15:04:55.567Z,55.07
2019-02-23T15:08:01.627Z,64.76
2019-02-23T15:11:22.616Z,64.79
2019-02-23T15:14:36.091Z,61.16
2019-02-23T15:17:51.402Z,61.14
2019-02-23T15:20:45.769Z,62.18
2019-02-23T15:24:02.512Z,61.80
2019-02-23T15:27:11.213Z,64.77
2019-02-23T15:30:18.979Z,58.77
2019-02-23T15:33:30.814Z,59.15
2019-02-23T15:36:42.609Z,65.26
2019-02-23T15:40:20.089Z,64.98
2019-02-23T15:43:48.756Z,65.86
2019-02-23T15:46:47.780Z,67.34
2019-02-23T15:49:34.472Z,65.69
2019-02-23T15:52:08.028Z,66.58
2019-02-23T15:54:37.460Z,65.92
2019-02-23T15:57:06.953Z,66.51
2019-02-23T15:59:36.437Z,67.05
2019-02-23T16:02:06.446Z,66.55
2019-02-23T16:04:36.157Z,66.54
2019-02-23T16:07:05.888Z,65.76
2019-02-23T16:09:35.698Z,67.47
2019-02-23T16:12:06.042Z,65.14
2019-02-23T16:14:35.723Z,66.25
2019-02-23T16:17:05.567Z,65.64
2019-02-23T16:19:35.133Z,65.39
2019-02-23T16:22:05.011Z,65.94
2019-02-23T16:24:34.798Z,65.85
2019-02-23T16:27:04.220Z,64.38
2019-02-23T16:29:38.697Z,63.42
2019-02-23T16:32:05.538Z,63.06
2019-02-23T16:34:35.255Z,64.62
2019-02-23T16:37:04.861Z,64.24
2019-02-23T16:39:34.425Z,63.01
2019-02-23T16:42:04.347Z,63.34
2019-02-23T16:44:33.857Z,62.38
2019-02-23T16:47:05.965Z,63.24
2019-02-23T16:49:35.542Z,61.06
2019-02-23T16:52:05.405Z,61.06
2019-02-23T16:54:35.087Z,61.40
2019-02-23T16:57:04.872Z,61.76
2019-02-23T16:59:34.350Z,60.33
2019-02-23T17:02:03.942Z,60.38
2019-02-23T17:04:33.669Z,60.65
2019-02-23T17:07:03.461Z,60.52
2019-02-23T17:09:33.364Z,60.97
2019-02-23T17:12:05.190Z,60.15
2019-02-23T17:14:34.968Z,60.71
2019-02-23T17:17:04.910Z,62.06
2019-02-23T17:19:34.930Z,61.90
2019-02-23T17:22:04.610Z,61.26
2019-02-23T17:24:34.365Z,61.63
2019-02-23T17:27:04.143Z,60.71
2019-02-23T17:29:33.993Z,61.57
2019-02-23T17:32:03.528Z,60.82
2019-02-23T17:34:33.342Z,59.64
2019-02-23T17:37:03.575Z,61.04
2019-02-23T17:39:33.081Z,60.77
2019-02-23T17:42:02.731Z,59.56
2019-02-23T17:44:34.068Z,59.12
2019-02-23T17:47:03.889Z,59.58
2019-02-23T17:49:33.335Z,60.40
2019-02-23T17:52:04.772Z,59.96
2019-02-23T17:54:34.335Z,60.17
2019-02-23T17:57:05.303Z,59.88
2019-02-23T17:59:37.760Z,60.67
2019-02-23T18:02:08.172Z,59.37
2019-02-23T18:04:38.079Z,59.75
2019-02-23T18:07:08.778Z,59.54
2019-02-23T18:09:41.708Z,59.09
2019-02-23T18:12:11.629Z,59.25
2019-02-23T18:14:41.475Z,60.41
2019-02-23T18:17:12.073Z,57.62
2019-02-23T18:19:41.589Z,57.43
2019-02-23T18:22:12.198Z,58.91
2019-02-23T18:24:41.759Z,58.83
2019-02-23T18:27:11.237Z,58.83
2019-02-23T18:29:40.844Z,57.07
2019-02-23T18:32:10.608Z,57.07
2019-02-23T18:34:40.276Z,57.22
2019-02-23T18:37:10.590Z,57.95
2019-02-23T18:39:40.416Z,57.04
2019-02-23T18:42:10.203Z,57.04
2019-02-23T18:44:39.940Z,57.54
2019-02-23T18:47:09.729Z,55.66
2019-02-23T18:49:39.283Z,54.69
2019-02-23T18:52:09.086Z,54.69
2019-02-23T18:54:38.629Z,54.46
2019-02-23T18:57:08.131Z,57.50
2019-02-23T18:59:37.721Z,59.21
2019-02-23T19:02:07.480Z,60.41
2019-02-23T19:04:38.913Z,57.04
2019-02-23T19:07:09.110Z,57.09
2019-02-23T19:09:39.239Z,60.16
2019-02-23T19:12:08.974Z,59.28
2019-02-23T19:14:38.838Z,59.15
2019-02-23T19:17:12.940Z,59.57
2019-02-23T19:19:43.103Z,60.06
2019-02-23T19:22:12.684Z,59.68
2019-02-23T19:24:42.267Z,61.35
2019-02-23T19:27:12.056Z,61.35
2019-02-23T19:29:41.812Z,62.09
2019-02-23T19:32:11.572Z,61.12
2019-02-23T19:34:41.471Z,61.11
2019-02-23T19:37:12.827Z,60.93
2019-02-23T19:39:45.678Z,62.54
2019-02-23T19:42:15.923Z,61.67
2019-02-23T19:44:45.756Z,62.19
2019-02-23T19:47:18.188Z,62.63
2019-02-23T19:49:47.696Z,62.63
2019-02-23T19:52:20.938Z,61.49
2019-02-23T19:54:50.539Z,62.49
2019-02-23T19:57:20.175Z,63.10
2019-02-23T19:59:52.542Z,61.64
2019-02-23T20:02:22.005Z,61.95
2019-02-23T20:04:51.819Z,62.03
2019-02-23T20:07:21.435Z,61.84
2019-02-23T20:09:51.231Z,62.24
2019-02-23T20:12:20.929Z,62.24
2019-02-23T20:14:50.710Z,62.84
2019-02-23T20:17:20.222Z,64.73
2019-02-23T20:19:50.062Z,64.05
2019-02-23T20:22:19.616Z,63.39
2019-02-23T20:24:49.213Z,63.30
2019-02-23T20:27:18.676Z,62.65
2019-02-23T20:29:48.379Z,59.77
2019-02-23T20:32:18.147Z,60.90
2019-02-23T20:34:47.545Z,60.70
2019-02-23T20:37:17.405Z,58.74
2019-02-23T20:39:47.096Z,58.74
2019-02-23T20:42:16.553Z,58.40
2019-02-23T20:44:46.042Z,58.25
2019-02-23T20:47:17.265Z,58.51
2019-02-23T20:49:46.907Z,57.13
2019-02-23T20:52:16.623Z,57.13
2019-02-23T20:54:46.413Z,57.14
2019-02-23T20:57:16.142Z,56.86
2019-02-23T20:59:45.754Z,56.86
2019-02-23T21:02:15.503Z,58.62
2019-02-23T21:04:45.402Z,59.01
2019-02-23T21:07:15.074Z,58.25
2019-02-23T21:09:44.829Z,58.93
2019-02-23T21:12:14.317Z,56.08
2019-02-23T21:14:44.027Z,55.64
2019-02-23T21:17:13.483Z,57.10
2019-02-23T21:19:42.874Z,56.50
2019-02-23T21:22:12.496Z,58.23
2019-02-23T21:24:42.243Z,58.83
2019-02-23T21:27:13.179Z,58.63
2019-02-23T21:29:42.729Z,59.24
2019-02-23T21:32:12.440Z,58.65
2019-02-23T21:34:42.086Z,58.20
2019-02-23T21:37:11.563Z,55.06
2019-02-23T21:39:41.313Z,54.98
2019-02-23T21:42:11.015Z,54.73
2019-02-23T21:44:40.612Z,55.35
2019-02-23T21:47:10.059Z,54.96
2019-02-23T21:49:39.557Z,55.66
2019-02-23T21:52:08.977Z,54.00
2019-02-23T21:54:38.401Z,54.70
2019-02-23T21:57:07.861Z,56.06
2019-02-23T21:59:37.484Z,55.72
2019-02-23T22:02:07.255Z,55.98
2019-02-23T22:04:36.931Z,55.60
2019-02-23T22:07:06.790Z,55.22
2019-02-23T22:09:36.287Z,54.87
2019-02-23T22:12:05.993Z,53.69
2019-02-23T22:14:35.655Z,53.62
2019-02-23T22:17:05.312Z,54.01
2019-02-23T22:19:34.811Z,53.95
2019-02-23T22:22:04.469Z,54.19
2019-02-23T22:24:34.247Z,55.25
2019-02-23T22:27:03.812Z,54.51
2019-02-23T22:29:33.461Z,54.51
2019-02-23T22:32:03.317Z,53.37
2019-02-23T22:34:33.178Z,54.59
2019-02-23T22:37:02.891Z,53.55
2019-02-23T22:39:32.349Z,53.54
2019-02-23T22:42:01.792Z,54.56
2019-02-23T22:44:31.532Z,54.62
2019-02-23T22:47:01.292Z,55.19
2019-02-23T22:49:30.773Z,54.99
2019-02-23T22:52:00.427Z,55.42
2019-02-23T22:54:30.114Z,55.13
2019-02-23T22:56:59.863Z,53.75
2019-02-23T22:59:29.798Z,54.94
2019-02-23T23:01:59.929Z,54.40
2019-02-23T23:04:29.324Z,55.22
2019-02-23T23:06:58.798Z,56.66
2019-02-23T23:09:28.580Z,55.90
2019-02-23T23:11:58.293Z,55.98
2019-02-23T23:14:27.782Z,56.08
2019-02-23T23:16:57.318Z,56.08
2019-02-23T23:19:26.793Z,56.28
2019-02-23T23:21:56.501Z,56.53
2019-02-23T23:24:25.995Z,56.77
2019-02-23T23:26:55.772Z,56.97
2019-02-23T23:29:25.551Z,57.71
2019-02-23T23:31:54.996Z,55.96
2019-02-23T23:34:24.844Z,55.68
2019-02-23T23:36:54.554Z,54.69
2019-02-23T23:39:23.955Z,55.01
2019-02-23T23:41:53.698Z,55.79
2019-02-23T23:44:23.547Z,56.22
2019-02-23T23:46:52.991Z,57.23
2019-02-23T23:49:22.572Z,58.28
2019-02-23T23:51:52.220Z,56.37
2019-02-23T23:54:21.963Z,57.31
2019-02-23T23:56:51.853Z,55.51
2019-02-23T23:59:21.396Z,54.46
